createdAt,value
2019-05-16T00:01:52.877Z,76
2019-05-16T00:06:52.228Z,77
2019-05-16T00:11:52.460Z,77
2019-05-16T00:16:52.825Z,77
2019-05-16T00:21:52.093Z,77
2019-05-16T00:26:52.074Z,77
2019-05-16T00:31:52.471Z,77
2019-05-16T00:36:52.838Z,77
2019-05-16T00:41:52.211Z,77
2019-05-16T00:46:52.504Z,77
2019-05-16T00:51:52.209Z,77
2019-05-16T00:56:52.449Z,77
2019-05-16T01:01:52.752Z,77
2019-05-16T01:06:52.787Z,77
2019-05-16T01:11:52.261Z,77
2019-05-16T01:16:52.961Z,78
2019-05-16T01:21:52.559Z,78
2019-05-16T01:26:52.869Z,78
2019-05-16T01:31:52.135Z,78
2019-05-16T01:36:52.534Z,78
2019-05-16T01:41:52.901Z,78
2019-05-16T01:46:52.292Z,78
2019-05-16T01:51:52.862Z,78
2019-05-16T01:56:52.437Z,77
2019-05-16T02:01:52.912Z,77
2019-05-16T02:06:54.691Z,76
2019-05-16T02:11:52.854Z,76
2019-05-16T02:16:52.211Z,75
2019-05-16T02:21:52.605Z,75
2019-05-16T02:26:53.012Z,73
2019-05-16T02:31:52.336Z,73
2019-05-16T02:37:17.962Z,74
2019-05-16T02:41:52.671Z,74
2019-05-16T02:46:52.961Z,74
2019-05-16T02:51:52.318Z,74
2019-05-16T02:56:52.636Z,74
2019-05-16T03:01:53.036Z,74
2019-05-16T03:06:52.562Z,74
2019-05-16T03:11:52.473Z,74
2019-05-16T03:16:52.841Z,74
2019-05-16T03:21:52.282Z,74
2019-05-16T03:26:52.586Z,74
2019-05-16T03:31:54.773Z,74
2019-05-16T03:36:54.615Z,74
2019-05-16T03:41:52.452Z,74
2019-05-16T03:46:52.342Z,74
2019-05-16T03:51:52.901Z,74
2019-05-16T03:56:52.568Z,73
2019-05-16T04:01:52.733Z,73
2019-05-16T04:06:53.246Z,73
2019-05-16T04:11:52.185Z,73
2019-05-16T04:16:52.856Z,74
2019-05-16T04:21:52.345Z,74
2019-05-16T04:26:53.142Z,74
2019-05-16T04:31:53.003Z,74
2019-05-16T04:36:52.542Z,73
2019-05-16T04:41:52.959Z,73
2019-05-16T04:46:53.175Z,73
2019-05-16T04:51:52.484Z,73
2019-05-16T04:56:52.728Z,72
2019-05-16T05:01:53.174Z,72
2019-05-16T05:06:55.757Z,71
2019-05-16T05:11:52.863Z,71
2019-05-16T05:16:52.204Z,71
2019-05-16T05:21:52.585Z,71
2019-05-16T05:26:53.053Z,70
2019-05-16T05:31:54.871Z,70
2019-05-16T05:36:53.169Z,69
2019-05-16T05:41:53.297Z,69
2019-05-16T05:46:52.619Z,68
2019-05-16T05:51:53.134Z,68
2019-05-16T05:56:52.927Z,67
2019-05-16T06:01:52.529Z,67
2019-05-16T06:06:52.902Z,65
2019-05-16T06:11:53.671Z,65
2019-05-16T06:16:52.596Z,64
2019-05-16T06:21:52.370Z,64
2019-05-16T06:26:52.757Z,66
2019-05-16T06:31:52.524Z,66
2019-05-16T06:36:52.456Z,65
2019-05-16T06:41:52.472Z,65
2019-05-16T06:47:07.186Z,63
2019-05-16T06:51:53.174Z,63
2019-05-16T06:56:52.992Z,64
2019-05-16T07:01:52.621Z,64
2019-05-16T07:06:59.064Z,66
2019-05-16T07:11:52.909Z,66
2019-05-16T07:16:52.421Z,66
2019-05-16T07:21:53.267Z,66
2019-05-16T07:26:52.681Z,67
2019-05-16T07:31:53.079Z,67
2019-05-16T07:36:52.747Z,68
2019-05-16T07:41:52.524Z,68
2019-05-16T07:46:53.370Z,69
2019-05-16T07:51:53.206Z,69
2019-05-16T07:56:59.679Z,71
2019-05-16T08:01:54.112Z,71
2019-05-16T08:06:52.985Z,73
2019-05-16T08:11:52.843Z,73
2019-05-16T08:16:53.283Z,73
2019-05-16T08:21:52.762Z,73
2019-05-16T08:26:53.155Z,73
2019-05-16T08:31:53.021Z,73
2019-05-16T08:36:53.013Z,73
2019-05-16T08:41:53.351Z,73
2019-05-16T08:46:57.132Z,73
2019-05-16T08:51:53.212Z,73
2019-05-16T08:56:52.751Z,75
2019-05-16T09:01:57.845Z,75
2019-05-16T09:06:53.655Z,74
2019-05-16T09:11:52.982Z,74
2019-05-16T09:16:53.414Z,74
2019-05-16T09:21:52.818Z,74
2019-05-16T09:26:53.307Z,74
2019-05-16T09:32:07.980Z,74
2019-05-16T09:36:58.071Z,74
2019-05-16T09:41:55.602Z,74
2019-05-16T09:46:53.250Z,73
2019-05-16T09:51:52.803Z,73
2019-05-16T09:56:52.584Z,74
2019-05-16T10:01:53.075Z,74
2019-05-16T10:06:52.655Z,75
2019-05-16T10:12:06.965Z,75
2019-05-16T10:16:52.916Z,76
2019-05-16T10:21:53.494Z,76
2019-05-16T10:26:54.030Z,79
2019-05-16T10:31:53.573Z,79
2019-05-16T10:36:53.776Z,81
2019-05-16T10:41:53.092Z,81
2019-05-16T10:46:53.466Z,84
2019-05-16T10:51:53.310Z,84
2019-05-16T10:56:52.788Z,86
2019-05-16T11:01:53.251Z,86
2019-05-16T11:06:52.743Z,87
2019-05-16T11:11:52.986Z,87
2019-05-16T11:16:53.426Z,89
2019-05-16T11:21:52.907Z,89
2019-05-16T11:26:53.440Z,90
2019-05-16T11:31:52.757Z,90
2019-05-16T11:36:53.403Z,91
2019-05-16T11:41:52.847Z,91
2019-05-16T11:46:53.266Z,92
2019-05-16T11:51:52.726Z,92
2019-05-16T11:56:53.102Z,92
2019-05-16T12:01:53.455Z,92
2019-05-16T12:06:53.204Z,92
2019-05-16T12:12:03.150Z,92
2019-05-16T12:16:53.101Z,92
2019-05-16T12:21:53.563Z,92
2019-05-16T12:26:52.993Z,93
2019-05-16T12:31:58.578Z,93
2019-05-16T12:36:52.952Z,93
2019-05-16T12:41:53.322Z,93
2019-05-16T12:46:53.747Z,94
2019-05-16T12:51:53.221Z,94
2019-05-16T12:56:53.603Z,94
2019-05-16T13:01:53.034Z,94
2019-05-16T13:06:53.680Z,94
2019-05-16T13:11:53.491Z,94
2019-05-16T13:16:53.715Z,95
2019-05-16T13:21:52.883Z,95
2019-05-16T13:26:53.217Z,95
2019-05-16T13:31:53.570Z,95
2019-05-16T13:36:53.129Z,94
2019-05-16T13:41:53.543Z,94
2019-05-16T13:46:52.879Z,94
2019-05-16T13:51:53.362Z,94
2019-05-16T13:56:53.802Z,92
2019-05-16T14:01:53.337Z,92
2019-05-16T14:06:56.370Z,91
2019-05-16T14:11:53.613Z,91
2019-05-16T14:16:53.734Z,90
2019-05-16T14:21:53.135Z,90
2019-05-16T14:26:53.655Z,88
2019-05-16T14:31:52.964Z,88
2019-05-16T14:36:53.410Z,87
2019-05-16T14:41:53.754Z,87
2019-05-16T14:46:53.362Z,87
2019-05-16T14:51:53.216Z,87
2019-05-16T14:56:53.533Z,88
2019-05-16T15:01:53.842Z,88
2019-05-16T15:06:53.417Z,88
2019-05-16T15:11:53.060Z,88
2019-05-16T15:16:53.832Z,88
2019-05-16T15:21:53.249Z,88
2019-05-16T15:26:53.601Z,87
2019-05-16T15:31:52.956Z,87
2019-05-16T15:36:53.393Z,87
2019-05-16T15:41:53.718Z,87
2019-05-16T15:46:53.029Z,87
2019-05-16T15:51:53.087Z,87
2019-05-16T15:56:53.410Z,88
2019-05-16T16:01:53.570Z,88
2019-05-16T16:06:53.541Z,88
2019-05-16T16:11:53.639Z,88
2019-05-16T16:16:53.638Z,89
2019-05-16T16:21:54.000Z,89
2019-05-16T16:26:53.497Z,90
2019-05-16T16:31:53.159Z,90
2019-05-16T16:36:54.002Z,91
2019-05-16T16:41:56.742Z,91
2019-05-16T16:46:53.292Z,91
2019-05-16T16:51:53.349Z,91
2019-05-16T16:56:53.879Z,91
2019-05-16T17:01:53.973Z,91
2019-05-16T17:06:53.439Z,92
2019-05-16T17:11:53.166Z,92
2019-05-16T17:16:53.621Z,92
2019-05-16T17:22:06.254Z,92
2019-05-16T17:26:54.159Z,92
2019-05-16T17:31:57.671Z,92
2019-05-16T17:36:53.879Z,93
2019-05-16T17:41:55.093Z,93
2019-05-16T17:46:53.184Z,93
2019-05-16T17:51:53.647Z,93
2019-05-16T17:56:54.008Z,93
2019-05-16T18:01:53.414Z,93
2019-05-16T18:06:53.873Z,93
2019-05-16T18:11:53.376Z,93
2019-05-16T18:16:58.694Z,94
2019-05-16T18:21:53.400Z,94
2019-05-16T18:26:53.817Z,94
2019-05-16T18:31:53.286Z,94
2019-05-16T18:36:53.594Z,94
2019-05-16T18:41:54.037Z,94
2019-05-16T18:47:03.987Z,94
2019-05-16T18:51:53.967Z,94
2019-05-16T18:56:53.255Z,94
2019-05-16T19:01:53.753Z,94
2019-05-16T19:06:53.358Z,94
2019-05-16T19:11:53.477Z,94
2019-05-16T19:16:54.061Z,94
2019-05-16T19:21:53.535Z,94
2019-05-16T19:26:53.927Z,95
2019-05-16T19:31:53.582Z,95
2019-05-16T19:36:54.192Z,95
2019-05-16T19:41:53.627Z,95
2019-05-16T19:46:53.834Z,95
2019-05-16T19:51:53.389Z,95
2019-05-16T19:56:56.370Z,95
2019-05-16T20:01:53.984Z,95
2019-05-16T20:06:53.488Z,95
2019-05-16T20:11:54.011Z,95
2019-05-16T20:16:56.533Z,95
2019-05-16T20:21:54.086Z,95
2019-05-16T20:26:53.327Z,96
2019-05-16T20:31:53.764Z,96
2019-05-16T20:36:53.425Z,96
2019-05-16T20:41:53.748Z,96
2019-05-16T20:46:56.611Z,96
2019-05-16T20:51:54.164Z,96
2019-05-16T20:56:53.713Z,96
2019-05-16T21:01:54.089Z,96
2019-05-16T21:07:01.590Z,96
2019-05-16T21:11:56.782Z,96
2019-05-16T21:16:53.880Z,96
2019-05-16T21:21:53.516Z,96
2019-05-16T21:26:54.042Z,96
2019-05-16T21:31:53.543Z,96
2019-05-16T21:36:54.059Z,96
2019-05-16T21:41:53.414Z,96
2019-05-16T21:46:53.860Z,96
2019-05-16T21:51:54.275Z,96
2019-05-16T21:56:53.601Z,96
2019-05-16T22:01:53.767Z,96
2019-05-16T22:06:53.970Z,96
2019-05-16T22:11:54.096Z,96
2019-05-16T22:16:53.777Z,96
2019-05-16T22:21:56.420Z,96
2019-05-16T22:26:53.810Z,96
2019-05-16T22:31:54.365Z,96
2019-05-16T22:36:54.251Z,96
2019-05-16T22:41:54.056Z,96
2019-05-16T22:46:54.504Z,96
2019-05-16T22:51:54.007Z,96
2019-05-16T22:56:53.716Z,96
2019-05-16T23:01:56.827Z,96
2019-05-16T23:06:53.889Z,97
2019-05-16T23:11:53.678Z,97
2019-05-16T23:16:54.286Z,97
2019-05-16T23:21:53.655Z,97
2019-05-16T23:26:56.220Z,97
2019-05-16T23:31:56.342Z,97
2019-05-16T23:36:53.927Z,97
2019-05-16T23:41:56.775Z,97
2019-05-16T23:46:56.260Z,97
2019-05-16T23:51:53.764Z,97
2019-05-16T23:56:54.291Z,97
